sensor_id;sensor_type;location;lat;lon;timestamp;pressure;altitude;pressure_sealevel;temperature;humidity
70968;BME280;58629;48.808;8.820;2023-04-27T00:01:34;97206.28;;;6.64;93.96
70968;BME280;58629;48.808;8.820;2023-04-27T00:03:59;97198.75;;;6.66;94.43
70968;BME280;58629;48.808;8.820;2023-04-27T00:06:25;97197.28;;;6.65;94.95
70968;BME280;58629;48.808;8.820;2023-04-27T00:08:51;97189.75;;;6.64;94.51
70968;BME280;58629;48.808;8.820;2023-04-27T00:11:16;97201.00;;;6.68;94.28
70968;BME280;58629;48.808;8.820;2023-04-27T00:13:42;97197.66;;;6.67;93.68
70968;BME280;58629;48.808;8.820;2023-04-27T00:16:07;97197.28;;;6.65;94.66
70968;BME280;58629;48.808;8.820;2023-04-27T00:18:32;97193.88;;;6.65;94.20
70968;BME280;58629;48.808;8.820;2023-04-27T00:20:58;97194.66;;;6.65;94.09
70968;BME280;58629;48.808;8.820;2023-04-27T00:23:24;97193.13;;;6.64;94.87
70968;BME280;58629;48.808;8.820;2023-04-27T00:25:50;97193.91;;;6.61;93.56
70968;BME280;58629;48.808;8.820;2023-04-27T00:28:15;97183.75;;;6.63;93.90
70968;BME280;58629;48.808;8.820;2023-04-27T00:30:41;97187.09;;;6.64;94.11
70968;BME280;58629;48.808;8.820;2023-04-27T00:33:06;97184.84;;;6.62;95.07
70968;BME280;58629;48.808;8.820;2023-04-27T00:35:32;97174.72;;;6.61;94.46
70968;BME280;58629;48.808;8.820;2023-04-27T00:37:57;97178.09;;;6.58;94.40
70968;BME280;58629;48.808;8.820;2023-04-27T00:40:23;97178.47;;;6.60;94.62
70968;BME280;58629;48.808;8.820;2023-04-27T00:42:48;97175.09;;;6.59;94.34
70968;BME280;58629;48.808;8.820;2023-04-27T00:45:13;97163.84;;;6.55;93.64
70968;BME280;58629;48.808;8.820;2023-04-27T00:47:39;97165.72;;;6.51;93.88
70968;BME280;58629;48.808;8.820;2023-04-27T00:50:04;97168.34;;;6.55;94.84
70968;BME280;58629;48.808;8.820;2023-04-27T00:52:34;97163.09;;;6.51;96.20
70968;BME280;58629;48.808;8.820;2023-04-27T00:55:01;97162.72;;;6.49;96.00
70968;BME280;58629;48.808;8.820;2023-04-27T00:57:28;97167.25;;;6.28;95.64
70968;BME280;58629;48.808;8.820;2023-04-27T00:59:53;97169.50;;;6.15;97.13
70968;BME280;58629;48.808;8.820;2023-04-27T01:02:18;97175.88;;;6.10;96.52
70968;BME280;58629;48.808;8.820;2023-04-27T01:04:44;97179.25;;;6.11;97.37
70968;BME280;58629;48.808;8.820;2023-04-27T01:07:09;97183.75;;;6.03;97.62
70968;BME280;58629;48.808;8.820;2023-04-27T01:09:34;97182.59;;;5.83;98.05
70968;BME280;58629;48.808;8.820;2023-04-27T01:12:00;97183.69;;;5.72;99.01
70968;BME280;58629;48.808;8.820;2023-04-27T01:14:27;97187.81;;;5.73;99.68
70968;BME280;58629;48.808;8.820;2023-04-27T01:16:52;97184.44;;;5.76;99.25
70968;BME280;58629;48.808;8.820;2023-04-27T01:19:18;97190.06;;;5.78;98.00
70968;BME280;58629;48.808;8.820;2023-04-27T01:21:43;97187.06;;;5.83;98.49
70968;BME280;58629;48.808;8.820;2023-04-27T01:24:08;97192.72;;;5.88;98.70
70968;BME280;58629;48.808;8.820;2023-04-27T01:26:34;97192.00;;;5.91;98.13
70968;BME280;58629;48.808;8.820;2023-04-27T01:28:59;97189.38;;;5.95;98.10
70968;BME280;58629;48.808;8.820;2023-04-27T01:31:25;97175.47;;;5.94;98.37
70968;BME280;58629;48.808;8.820;2023-04-27T01:33:50;97181.88;;;5.97;98.31
70968;BME280;58629;48.808;8.820;2023-04-27T01:36:15;97177.00;;;5.99;98.15
70968;BME280;58629;48.808;8.820;2023-04-27T01:38:41;97174.72;;;6.01;98.49
70968;BME280;58629;48.808;8.820;2023-04-27T01:41:06;97169.09;;;5.95;98.22
70968;BME280;58629;48.808;8.820;2023-04-27T01:43:33;97182.25;;;5.99;98.45
70968;BME280;58629;48.808;8.820;2023-04-27T01:46:10;97186.38;;;5.96;98.46
70968;BME280;58629;48.808;8.820;2023-04-27T01:48:37;97177.72;;;5.92;98.41
70968;BME280;58629;48.808;8.820;2023-04-27T01:51:02;97192.00;;;5.95;98.66
70968;BME280;58629;48.808;8.820;2023-04-27T01:53:28;97173.59;;;5.98;98.92
70968;BME280;58629;48.808;8.820;2023-04-27T01:55:54;97180.75;;;5.98;98.59
70968;BME280;58629;48.808;8.820;2023-04-27T01:58:20;97185.25;;;5.97;98.32
70968;BME280;58629;48.808;8.820;2023-04-27T02:00:45;97184.13;;;5.95;98.11
70968;BME280;58629;48.808;8.820;2023-04-27T02:03:10;97191.25;;;5.94;98.46
70968;BME280;58629;48.808;8.820;2023-04-27T02:05:36;97187.13;;;5.90;98.32
70968;BME280;58629;48.808;8.820;2023-04-27T02:08:01;97186.72;;;5.84;97.95
70968;BME280;58629;48.808;8.820;2023-04-27T02:10:26;97187.06;;;5.83;98.48
70968;BME280;58629;48.808;8.820;2023-04-27T02:12:52;97189.34;;;5.84;98.27
70968;BME280;58629;48.808;8.820;2023-04-27T02:15:17;97191.97;;;5.84;98.26
70968;BME280;58629;48.808;8.820;2023-04-27T02:17:42;97197.22;;;5.84;98.31
70968;BME280;58629;48.808;8.820;2023-04-27T02:20:08;97195.38;;;5.85;98.08
70968;BME280;58629;48.808;8.820;2023-04-27T02:22:35;97199.50;;;5.86;98.60
70968;BME280;58629;48.808;8.820;2023-04-27T02:25:01;97197.22;;;5.84;98.73
70968;BME280;58629;48.808;8.820;2023-04-27T02:27:26;97188.94;;;5.82;98.41
70968;BME280;58629;48.808;8.820;2023-04-27T02:29:51;97192.31;;;5.79;98.01
70968;BME280;58629;48.808;8.820;2023-04-27T02:32:16;97196.44;;;5.80;98.81
70968;BME280;58629;48.808;8.820;2023-04-27T02:34:42;97202.47;;;5.81;98.97
70968;BME280;58629;48.808;8.820;2023-04-27T02:37:07;97206.22;;;5.80;99.30
70968;BME280;58629;48.808;8.820;2023-04-27T02:39:33;97202.84;;;5.79;99.43
70968;BME280;58629;48.808;8.820;2023-04-27T02:41:58;97204.31;;;5.77;99.37
70968;BME280;58629;48.808;8.820;2023-04-27T02:44:23;97202.47;;;5.77;100.00
70968;BME280;58629;48.808;8.820;2023-04-27T02:46:49;97200.97;;;5.76;100.00
70968;BME280;58629;48.808;8.820;2023-04-27T02:49:15;97200.97;;;5.80;100.00
70968;BME280;58629;48.808;8.820;2023-04-27T02:51:41;97202.84;;;5.79;99.60
70968;BME280;58629;48.808;8.820;2023-04-27T02:54:06;97203.97;;;5.78;99.82
70968;BME280;58629;48.808;8.820;2023-04-27T02:56:31;97206.59;;;5.78;98.95
70968;BME280;58629;48.808;8.820;2023-04-27T02:58:56;97202.84;;;5.76;98.96
70968;BME280;58629;48.808;8.820;2023-04-27T03:01:22;97194.94;;;5.76;98.96
70968;BME280;58629;48.808;8.820;2023-04-27T03:03:47;97196.81;;;5.79;99.16
70968;BME280;58629;48.808;8.820;2023-04-27T03:06:13;97194.56;;;5.77;98.96
70968;BME280;58629;48.808;8.820;2023-04-27T03:08:38;97190.47;;;5.76;99.02
70968;BME280;58629;48.808;8.820;2023-04-27T03:11:04;97204.31;;;5.77;99.47
70968;BME280;58629;48.808;8.820;2023-04-27T03:13:30;97194.19;;;5.75;99.75
70968;BME280;58629;48.808;8.820;2023-04-27T03:15:55;97200.97;;;5.80;99.75
70968;BME280;58629;48.808;8.820;2023-04-27T03:18:20;97207.34;;;5.75;98.78
70968;BME280;58629;48.808;8.820;2023-04-27T03:20:45;97205.47;;;5.76;99.01
70968;BME280;58629;48.808;8.820;2023-04-27T03:23:11;97206.94;;;5.73;98.65
70968;BME280;58629;48.808;8.820;2023-04-27T03:25:36;97205.47;;;5.76;99.44
70968;BME280;58629;48.808;8.820;2023-04-27T03:28:02;97199.44;;;5.75;99.76
70968;BME280;58629;48.808;8.820;2023-04-27T03:30:27;97204.69;;;5.75;99.19
70968;BME280;58629;48.808;8.820;2023-04-27T03:32:52;97200.97;;;5.76;99.33
70968;BME280;58629;48.808;8.820;2023-04-27T03:35:18;97202.06;;;5.75;99.77
70968;BME280;58629;48.808;8.820;2023-04-27T03:37:43;97199.44;;;5.79;99.79
70968;BME280;58629;48.808;8.820;2023-04-27T03:40:10;97204.72;;;5.79;100.00
70968;BME280;58629;48.808;8.820;2023-04-27T03:42:36;97206.19;;;5.73;98.23
70968;BME280;58629;48.808;8.820;2023-04-27T03:45:01;97208.84;;;5.76;99.04
70968;BME280;58629;48.808;8.820;2023-04-27T03:47:27;97198.72;;;5.78;98.97
70968;BME280;58629;48.808;8.820;2023-04-27T03:49:52;97208.47;;;5.81;98.96
70968;BME280;58629;48.808;8.820;2023-04-27T03:52:17;97209.97;;;5.79;98.62
70968;BME280;58629;48.808;8.820;2023-04-27T03:54:42;97203.97;;;5.78;98.31
70968;BME280;58629;48.808;8.820;2023-04-27T03:57:08;97205.84;;;5.78;98.93
70968;BME280;58629;48.808;8.820;2023-04-27T03:59:33;97206.22;;;5.76;97.89
70968;BME280;58629;48.808;8.820;2023-04-27T04:01:58;97196.06;;;5.71;97.41
70968;BME280;58629;48.808;8.820;2023-04-27T04:04:23;97198.69;;;5.71;97.37
70968;BME280;58629;48.808;8.820;2023-04-27T04:06:49;97197.94;;;5.71;97.79
70968;BME280;58629;48.808;8.820;2023-04-27T04:09:14;97209.19;;;5.71;97.85
70968;BME280;58629;48.808;8.820;2023-04-27T04:11:40;97202.44;;;5.70;98.11
70968;BME280;58629;48.808;8.820;2023-04-27T04:14:05;97207.72;;;5.70;97.74
70968;BME280;58629;48.808;8.820;2023-04-27T04:16:32;97205.09;;;5.70;98.13
70968;BME280;58629;48.808;8.820;2023-04-27T04:18:57;97212.59;;;5.72;98.14
70968;BME280;58629;48.808;8.820;2023-04-27T04:21:22;97212.59;;;5.72;98.28
70968;BME280;58629;48.808;8.820;2023-04-27T04:23:48;97214.44;;;5.71;98.15
70968;BME280;58629;48.808;8.820;2023-04-27T04:26:14;97217.84;;;5.72;98.75
70968;BME280;58629;48.808;8.820;2023-04-27T04:28:39;97215.22;;;5.68;98.51
70968;BME280;58629;48.808;8.820;2023-04-27T04:31:04;97220.84;;;5.74;99.12
70968;BME280;58629;48.808;8.820;2023-04-27T04:33:30;97220.09;;;5.73;98.62
70968;BME280;58629;48.808;8.820;2023-04-27T04:35:56;97225.72;;;5.75;98.41
70968;BME280;58629;48.808;8.820;2023-04-27T04:38:21;97215.97;;;5.79;98.90
70968;BME280;58629;48.808;8.820;2023-04-27T04:40:47;97214.91;;;5.84;99.46
70968;BME280;58629;48.808;8.820;2023-04-27T04:43:12;97218.69;;;6.18;100.00
70968;BME280;58629;48.808;8.820;2023-04-27T04:45:38;97209.69;;;6.47;100.00
70968;BME280;58629;48.808;8.820;2023-04-27T04:48:03;97217.56;;;6.75;100.00
70968;BME280;58629;48.808;8.820;2023-04-27T04:50:28;97222.00;;;7.07;100.00
70968;BME280;58629;48.808;8.820;2023-04-27T04:52:54;97220.38;;;7.37;100.00
70968;BME280;58629;48.808;8.820;2023-04-27T04:55:19;97216.16;;;7.61;97.05
70968;BME280;58629;48.808;8.820;2023-04-27T04:57:45;97216.78;;;7.86;97.12
70968;BME280;58629;48.808;8.820;2023-04-27T05:00:11;97212.88;;;8.05;95.01
70968;BME280;58629;48.808;8.820;2023-04-27T05:02:38;97212.03;;;8.18;92.57
70968;BME280;58629;48.808;8.820;2023-04-27T05:05:04;97211.25;;;8.32;92.04
70968;BME280;58629;48.808;8.820;2023-04-27T05:07:29;97204.72;;;8.43;90.13
70968;BME280;58629;48.808;8.820;2023-04-27T05:09:55;97210.31;;;8.52;89.65
70968;BME280;58629;48.808;8.820;2023-04-27T05:12:20;97212.53;;;8.57;88.43
70968;BME280;58629;48.808;8.820;2023-04-27T05:14:45;97214.66;;;8.69;87.76
70968;BME280;58629;48.808;8.820;2023-04-27T05:17:11;97217.25;;;8.77;86.57
70968;BME280;58629;48.808;8.820;2023-04-27T05:19:37;97215.66;;;8.86;85.33
70968;BME280;58629;48.808;8.820;2023-04-27T05:22:02;97220.88;;;8.93;85.06
70968;BME280;58629;48.808;8.820;2023-04-27T05:24:27;97219.34;;;8.96;83.80
70968;BME280;58629;48.808;8.820;2023-04-27T05:26:52;97221.19;;;8.99;82.45
70968;BME280;58629;48.808;8.820;2023-04-27T05:29:18;97224.16;;;9.04;82.88
70968;BME280;58629;48.808;8.820;2023-04-27T05:31:44;97226.44;;;9.02;82.48
70968;BME280;58629;48.808;8.820;2023-04-27T05:34:09;97230.19;;;9.05;81.73
70968;BME280;58629;48.808;8.820;2023-04-27T05:36:35;97230.94;;;9.05;81.97
70968;BME280;58629;48.808;8.820;2023-04-27T05:39:01;97238.16;;;9.01;81.40
70968;BME280;58629;48.808;8.820;2023-04-27T05:41:28;97231.72;;;9.02;81.00
70968;BME280;58629;48.808;8.820;2023-04-27T05:43:53;97239.28;;;9.00;81.28
70968;BME280;58629;48.808;8.820;2023-04-27T05:46:19;97235.63;;;8.91;79.65
70968;BME280;58629;48.808;8.820;2023-04-27T05:48:45;97239.72;;;8.95;80.91
70968;BME280;58629;48.808;8.820;2023-04-27T05:51:10;97239.34;;;8.97;81.49
70968;BME280;58629;48.808;8.820;2023-04-27T05:53:35;97241.56;;;8.98;81.07
70968;BME280;58629;48.808;8.820;2023-04-27T05:56:01;97242.66;;;9.04;81.15
70968;BME280;58629;48.808;8.820;2023-04-27T05:58:28;97247.84;;;9.15;81.06
70968;BME280;58629;48.808;8.820;2023-04-27T06:00:53;97245.81;;;9.26;80.30
70968;BME280;58629;48.808;8.820;2023-04-27T06:03:19;97246.47;;;9.33;80.38
70968;BME280;58629;48.808;8.820;2023-04-27T06:05:44;97247.16;;;9.41;79.81
70968;BME280;58629;48.808;8.820;2023-04-27T06:08:10;97250.84;;;9.50;79.44
70968;BME280;58629;48.808;8.820;2023-04-27T06:10:37;97260.22;;;9.55;79.00
70968;BME280;58629;48.808;8.820;2023-04-27T06:13:02;97262.78;;;9.62;79.49
70968;BME280;58629;48.808;8.820;2023-04-27T06:15:28;97261.94;;;9.69;78.82
70968;BME280;58629;48.808;8.820;2023-04-27T06:17:53;97262.56;;;9.80;78.07
70968;BME280;58629;48.808;8.820;2023-04-27T06:20:19;97270.41;;;9.87;77.31
70968;BME280;58629;48.808;8.820;2023-04-27T06:22:44;97274.44;;;9.95;76.84
70968;BME280;58629;48.808;8.820;2023-04-27T06:25:11;97269.81;;;10.02;76.49
70968;BME280;58629;48.808;8.820;2023-04-27T06:27:36;97267.09;;;10.09;74.82
70968;BME280;58629;48.808;8.820;2023-04-27T06:30:01;97268.31;;;10.31;74.62
70968;BME280;58629;48.808;8.820;2023-04-27T06:32:27;97270.28;;;10.27;73.57
70968;BME280;58629;48.808;8.820;2023-04-27T06:34:52;97274.69;;;10.34;74.15
70968;BME280;58629;48.808;8.820;2023-04-27T06:37:17;97271.25;;;10.37;73.63
70968;BME280;58629;48.808;8.820;2023-04-27T06:39:43;97272.03;;;10.34;73.16
70968;BME280;58629;48.808;8.820;2023-04-27T06:42:09;97276.84;;;9.86;74.47
70968;BME280;58629;48.808;8.820;2023-04-27T06:44:34;97274.41;;;9.98;75.40
70968;BME280;58629;48.808;8.820;2023-04-27T06:46:59;97276.97;;;10.35;75.57
70968;BME280;58629;48.808;8.820;2023-04-27T06:49:24;97273.13;;;10.63;72.69
70968;BME280;58629;48.808;8.820;2023-04-27T06:51:50;97272.16;;;10.77;70.96
70968;BME280;58629;48.808;8.820;2023-04-27T06:54:15;97272.34;;;10.89;71.64
70968;BME280;58629;48.808;8.820;2023-04-27T06:56:40;97280.19;;;11.16;71.06
70968;BME280;58629;48.808;8.820;2023-04-27T06:59:06;97263.50;;;11.39;70.13
70968;BME280;58629;48.808;8.820;2023-04-27T07:01:32;97267.09;;;11.48;68.47
70968;BME280;58629;48.808;8.820;2023-04-27T07:03:57;97268.81;;;11.58;69.32
70968;BME280;58629;48.808;8.820;2023-04-27T07:06:22;97268.31;;;11.83;68.56
70968;BME280;58629;48.808;8.820;2023-04-27T07:08:49;97272.75;;;11.89;65.42
70968;BME280;58629;48.808;8.820;2023-04-27T07:11:15;97271.47;;;12.13;64.47
70968;BME280;58629;48.808;8.820;2023-04-27T07:13:40;97276.00;;;11.97;65.04
70968;BME280;58629;48.808;8.820;2023-04-27T07:16:06;97276.75;;;11.97;65.04
70968;BME280;58629;48.808;8.820;2023-04-27T07:18:31;97268.53;;;11.92;62.32
70968;BME280;58629;48.808;8.820;2023-04-27T07:20:56;97275.38;;;12.09;64.58
70968;BME280;58629;48.808;8.820;2023-04-27T07:23:22;97267.94;;;12.20;62.80
70968;BME280;58629;48.808;8.820;2023-04-27T07:25:48;97266.25;;;12.26;63.13
70968;BME280;58629;48.808;8.820;2023-04-27T07:28:14;97263.47;;;12.33;61.10
70968;BME280;58629;48.808;8.820;2023-04-27T07:30:39;97271.09;;;12.31;60.31
70968;BME280;58629;48.808;8.820;2023-04-27T07:33:05;97266.50;;;12.15;58.25
70968;BME280;58629;48.808;8.820;2023-04-27T07:35:31;97266.69;;;12.25;62.07
70968;BME280;58629;48.808;8.820;2023-04-27T07:37:58;97268.25;;;12.38;59.03
70968;BME280;58629;48.808;8.820;2023-04-27T07:40:25;97260.91;;;12.46;56.33
70968;BME280;58629;48.808;8.820;2023-04-27T07:42:51;97265.19;;;12.72;58.70
70968;BME280;58629;48.808;8.820;2023-04-27T07:45:16;97264.94;;;13.15;58.82
70968;BME280;58629;48.808;8.820;2023-04-27T07:47:42;97260.94;;;13.23;56.66
70968;BME280;58629;48.808;8.820;2023-04-27T07:50:09;97258.13;;;13.42;51.81
70968;BME280;58629;48.808;8.820;2023-04-27T07:52:34;97257.50;;;13.22;51.44
70968;BME280;58629;48.808;8.820;2023-04-27T07:55:01;97261.06;;;13.60;54.58
70968;BME280;58629;48.808;8.820;2023-04-27T07:57:27;97252.25;;;13.76;53.44
70968;BME280;58629;48.808;8.820;2023-04-27T07:59:52;97253.44;;;13.87;54.00
70968;BME280;58629;48.808;8.820;2023-04-27T08:02:18;97252.13;;;13.79;51.49
70968;BME280;58629;48.808;8.820;2023-04-27T08:04:43;97252.06;;;13.96;50.83
70968;BME280;58629;48.808;8.820;2023-04-27T08:07:08;97256.22;;;14.09;51.95
70968;BME280;58629;48.808;8.820;2023-04-27T08:09:34;97253.03;;;14.27;52.04
70968;BME280;58629;48.808;8.820;2023-04-27T08:11:59;97251.91;;;14.28;50.05
70968;BME280;58629;48.808;8.820;2023-04-27T08:14:27;97251.13;;;14.27;49.65
70968;BME280;58629;48.808;8.820;2023-04-27T08:16:52;97252.53;;;14.32;47.95
70968;BME280;58629;48.808;8.820;2023-04-27T08:19:17;97253.69;;;14.43;46.59
70968;BME280;58629;48.808;8.820;2023-04-27T08:21:43;97251.66;;;14.47;48.73
70968;BME280;58629;48.808;8.820;2023-04-27T08:24:08;97248.19;;;14.85;51.80
70968;BME280;58629;48.808;8.820;2023-04-27T08:26:33;97240.56;;;14.96;47.89
70968;BME280;58629;48.808;8.820;2023-04-27T08:29:00;97240.19;;;15.19;50.36
70968;BME280;58629;48.808;8.820;2023-04-27T08:31:25;97239.88;;;15.17;47.96
70968;BME280;58629;48.808;8.820;2023-04-27T08:33:51;97231.91;;;15.04;44.43
70968;BME280;58629;48.808;8.820;2023-04-27T08:36:18;97240.69;;;14.92;45.20
70968;BME280;58629;48.808;8.820;2023-04-27T08:38:43;97232.72;;;15.14;47.78
70968;BME280;58629;48.808;8.820;2023-04-27T08:41:08;97235.53;;;14.98;43.34
70968;BME280;58629;48.808;8.820;2023-04-27T08:43:34;97229.84;;;15.08;44.98
70968;BME280;58629;48.808;8.820;2023-04-27T08:46:00;97230.97;;;15.41;47.23
70968;BME280;58629;48.808;8.820;2023-04-27T08:48:25;97228.41;;;15.29;44.82
70968;BME280;58629;48.808;8.820;2023-04-27T08:50:51;97229.50;;;15.19;45.82
70968;BME280;58629;48.808;8.820;2023-04-27T08:53:19;97232.53;;;15.30;45.07
70968;BME280;58629;48.808;8.820;2023-04-27T08:55:45;97232.38;;;15.46;44.67
70968;BME280;58629;48.808;8.820;2023-04-27T08:58:11;97228.53;;;15.69;47.32
70968;BME280;58629;48.808;8.820;2023-04-27T09:00:38;97223.78;;;16.03;46.95
70968;BME280;58629;48.808;8.820;2023-04-27T09:03:17;97235.06;;;15.46;44.31
70968;BME280;58629;48.808;8.820;2023-04-27T09:05:47;97232.31;;;15.37;44.78
70968;BME280;58629;48.808;8.820;2023-04-27T09:08:13;97237.59;;;15.49;44.47
70968;BME280;58629;48.808;8.820;2023-04-27T09:10:51;97235.78;;;15.68;41.73
70968;BME280;58629;48.808;8.820;2023-04-27T09:13:17;97240.31;;;15.37;43.12
70968;BME280;58629;48.808;8.820;2023-04-27T09:15:47;97226.97;;;15.58;44.29
70968;BME280;58629;48.808;8.820;2023-04-27T09:18:20;97239.22;;;15.69;45.61
70968;BME280;58629;48.808;8.820;2023-04-27T09:20:49;97236.13;;;15.79;43.76
70968;BME280;58629;48.808;8.820;2023-04-27T09:23:32;97237.28;;;16.00;42.12
70968;BME280;58629;48.808;8.820;2023-04-27T09:25:59;97236.78;;;16.23;43.44
70968;BME280;58629;48.808;8.820;2023-04-27T09:28:27;97229.22;;;16.30;41.97
70968;BME280;58629;48.808;8.820;2023-04-27T09:30:54;97226.84;;;16.32;41.75
70968;BME280;58629;48.808;8.820;2023-04-27T09:35:49;97237.47;;;16.54;42.96
70968;BME280;58629;48.808;8.820;2023-04-27T09:38:17;97239.13;;;16.61;41.76
70968;BME280;58629;48.808;8.820;2023-04-27T09:40:42;97228.19;;;16.77;42.00
70968;BME280;58629;48.808;8.820;2023-04-27T09:43:08;97226.53;;;16.70;40.03
70968;BME280;58629;48.808;8.820;2023-04-27T09:45:35;97228.16;;;16.59;40.59
70968;BME280;58629;48.808;8.820;2023-04-27T09:48:03;97239.19;;;16.30;40.70
70968;BME280;58629;48.808;8.820;2023-04-27T09:50:30;97231.66;;;16.46;41.25
70968;BME280;58629;48.808;8.820;2023-04-27T09:52:58;97223.03;;;16.42;42.49
70968;BME280;58629;48.808;8.820;2023-04-27T09:55:30;97222.19;;;16.55;42.98
70968;BME280;58629;48.808;8.820;2023-04-27T10:00:50;97228.59;;;16.66;39.23
70968;BME280;58629;48.808;8.820;2023-04-27T10:08:58;97226.56;;;17.06;43.89
70968;BME280;58629;48.808;8.820;2023-04-27T10:11:36;97231.78;;;17.01;42.45
70968;BME280;58629;48.808;8.820;2023-04-27T10:14:06;97227.59;;;17.27;39.80
70968;BME280;58629;48.808;8.820;2023-04-27T10:16:42;97222.84;;;17.04;39.43
70968;BME280;58629;48.808;8.820;2023-04-27T10:19:09;97224.75;;;17.21;40.17
70968;BME280;58629;48.808;8.820;2023-04-27T10:21:34;97231.00;;;17.09;37.78
70968;BME280;58629;48.808;8.820;2023-04-27T10:24:06;97221.47;;;17.63;37.63
70968;BME280;58629;48.808;8.820;2023-04-27T10:26:32;97228.03;;;17.53;38.53
70968;BME280;58629;48.808;8.820;2023-04-27T10:29:05;97225.06;;;17.32;40.61
70968;BME280;58629;48.808;8.820;2023-04-27T10:31:34;97225.06;;;16.87;41.14
70968;BME280;58629;48.808;8.820;2023-04-27T10:34:10;97224.78;;;16.85;41.94
70968;BME280;58629;48.808;8.820;2023-04-27T10:36:39;97224.03;;;16.94;39.04
70968;BME280;58629;48.808;8.820;2023-04-27T10:39:15;97222.69;;;16.98;39.79
70968;BME280;58629;48.808;8.820;2023-04-27T10:41:52;97218.22;;;17.13;40.82
70968;BME280;58629;48.808;8.820;2023-04-27T10:44:25;97218.34;;;16.56;42.23
70968;BME280;58629;48.808;8.820;2023-04-27T10:46:55;97223.00;;;16.33;47.60
70968;BME280;58629;48.808;8.820;2023-04-27T10:49:21;97225.63;;;16.55;44.24
70968;BME280;58629;48.808;8.820;2023-04-27T10:51:49;97217.03;;;16.69;42.88
70968;BME280;58629;48.808;8.820;2023-04-27T10:54:14;97218.25;;;16.95;41.55
70968;BME280;58629;48.808;8.820;2023-04-27T10:56:40;97226.53;;;17.15;42.88
70968;BME280;58629;48.808;8.820;2023-04-27T10:59:06;97219.72;;;17.23;40.18
70968;BME280;58629;48.808;8.820;2023-04-27T11:01:35;97208.53;;;17.43;39.65
70968;BME280;58629;48.808;8.820;2023-04-27T11:04:01;97206.13;;;17.72;38.92
70968;BME280;58629;48.808;8.820;2023-04-27T11:06:28;97203.88;;;17.71;41.52
70968;BME280;58629;48.808;8.820;2023-04-27T11:08:54;97205.56;;;17.41;39.77
70968;BME280;58629;48.808;8.820;2023-04-27T11:11:20;97207.97;;;16.94;41.74
70968;BME280;58629;48.808;8.820;2023-04-27T11:13:49;97208.13;;;16.99;47.90
70968;BME280;58629;48.808;8.820;2023-04-27T11:16:17;97210.19;;;16.86;43.39
70968;BME280;58629;48.808;8.820;2023-04-27T11:18:44;97204.25;;;16.73;46.17
70968;BME280;58629;48.808;8.820;2023-04-27T11:23:34;97194.56;;;17.99;41.90
70968;BME280;58629;48.808;8.820;2023-04-27T11:26:19;97206.03;;;17.30;45.19
70968;BME280;58629;48.808;8.820;2023-04-27T11:31:48;97211.63;;;17.78;40.95
70968;BME280;58629;48.808;8.820;2023-04-27T11:34:23;97214.09;;;18.32;40.07
70968;BME280;58629;48.808;8.820;2023-04-27T11:37:02;97211.41;;;17.12;42.47
70968;BME280;58629;48.808;8.820;2023-04-27T11:39:33;97210.06;;;16.72;43.46
70968;BME280;58629;48.808;8.820;2023-04-27T11:42:22;97207.97;;;16.67;43.58
70968;BME280;58629;48.808;8.820;2023-04-27T11:44:58;97200.41;;;17.01;43.51
70968;BME280;58629;48.808;8.820;2023-04-27T11:47:26;97197.22;;;17.57;41.48
70968;BME280;58629;48.808;8.820;2023-04-27T11:49:58;97193.78;;;18.07;41.33
70968;BME280;58629;48.808;8.820;2023-04-27T11:52:27;97194.84;;;18.34;41.00
70968;BME280;58629;48.808;8.820;2023-04-27T11:54:53;97190.59;;;18.51;39.58
70968;BME280;58629;48.808;8.820;2023-04-27T11:57:27;97186.13;;;18.95;38.98
70968;BME280;58629;48.808;8.820;2023-04-27T11:59:54;97182.88;;;18.91;39.46
70968;BME280;58629;48.808;8.820;2023-04-27T12:02:20;97178.75;;;19.19;40.63
70968;BME280;58629;48.808;8.820;2023-04-27T12:04:49;97185.75;;;19.40;38.76
70968;BME280;58629;48.808;8.820;2023-04-27T12:07:14;97181.03;;;19.64;40.26
70968;BME280;58629;48.808;8.820;2023-04-27T12:09:40;97185.38;;;19.47;38.35
70968;BME280;58629;48.808;8.820;2023-04-27T12:12:06;97184.81;;;19.58;36.81
70968;BME280;58629;48.808;8.820;2023-04-27T12:14:31;97183.41;;;19.77;37.04
70968;BME280;58629;48.808;8.820;2023-04-27T12:16:57;97177.69;;;19.40;36.92
70968;BME280;58629;48.808;8.820;2023-04-27T12:19:22;97184.41;;;19.94;38.85
70968;BME280;58629;48.808;8.820;2023-04-27T12:21:50;97185.16;;;19.95;38.73
70968;BME280;58629;48.808;8.820;2023-04-27T12:24:16;97179.44;;;19.72;38.59
70968;BME280;58629;48.808;8.820;2023-04-27T12:26:41;97178.88;;;19.68;39.79
70968;BME280;58629;48.808;8.820;2023-04-27T12:29:06;97176.19;;;19.54;40.47
70968;BME280;58629;48.808;8.820;2023-04-27T12:31:32;97174.25;;;19.54;39.74
70968;BME280;58629;48.808;8.820;2023-04-27T12:33:57;97179.16;;;19.56;41.13
70968;BME280;58629;48.808;8.820;2023-04-27T12:36:23;97179.44;;;19.58;41.62
70968;BME280;58629;48.808;8.820;2023-04-27T12:38:48;97174.81;;;19.58;41.10
70968;BME280;58629;48.808;8.820;2023-04-27T12:41:13;97170.28;;;19.50;41.31
70968;BME280;58629;48.808;8.820;2023-04-27T12:43:39;97179.16;;;19.56;42.05
70968;BME280;58629;48.808;8.820;2023-04-27T12:46:05;97168.22;;;19.59;41.26
70968;BME280;58629;48.808;8.820;2023-04-27T12:48:30;97162.41;;;19.46;41.90
70968;BME280;58629;48.808;8.820;2023-04-27T12:50:57;97164.66;;;19.10;39.67
70968;BME280;58629;48.808;8.820;2023-04-27T12:53:22;97168.16;;;18.06;40.99
70968;BME280;58629;48.808;8.820;2023-04-27T12:55:48;97173.91;;;18.56;42.26
70968;BME280;58629;48.808;8.820;2023-04-27T12:58:13;97165.50;;;18.63;38.79
70968;BME280;58629;48.808;8.820;2023-04-27T13:00:38;97161.94;;;18.80;40.36
70968;BME280;58629;48.808;8.820;2023-04-27T13:03:04;97164.59;;;19.19;41.63
70968;BME280;58629;48.808;8.820;2023-04-27T13:05:30;97159.38;;;19.00;36.81
70968;BME280;58629;48.808;8.820;2023-04-27T13:07:56;97162.19;;;19.21;38.78
70968;BME280;58629;48.808;8.820;2023-04-27T13:10:21;97164.53;;;18.51;41.60
70968;BME280;58629;48.808;8.820;2023-04-27T13:12:46;97164.00;;;19.00;40.51
70968;BME280;58629;48.808;8.820;2023-04-27T13:15:11;97159.28;;;19.10;39.52
70968;BME280;58629;48.808;8.820;2023-04-27T13:17:37;97160.91;;;19.45;37.54